createdAt,value
2018-09-29T00:00:54.725Z,63.63
2018-09-29T00:05:59.195Z,64.15
2018-09-29T00:11:03.427Z,64.03
2018-09-29T00:16:08.131Z,64.43
2018-09-29T00:21:13.461Z,64.64
2018-09-29T00:26:17.614Z,65.00
2018-09-29T00:31:22.290Z,65.23
2018-09-29T00:36:26.737Z,65.30
2018-09-29T00:41:31.438Z,65.89
2018-09-29T00:46:35.711Z,65.61
2018-09-29T00:51:40.071Z,65.68
2018-09-29T00:56:45.986Z,65.58
2018-09-29T01:01:50.314Z,65.81
2018-09-29T01:06:55.395Z,66.00
2018-09-29T01:11:59.674Z,65.67
2018-09-29T01:17:03.807Z,65.36
2018-09-29T01:22:08.087Z,65.47
2018-09-29T01:27:12.461Z,66.00
2018-09-29T01:32:16.703Z,66.29
2018-09-29T01:37:20.982Z,66.76
2018-09-29T01:42:25.726Z,66.59
2018-09-29T01:47:31.476Z,66.76
2018-09-29T01:52:35.761Z,66.95
2018-09-29T01:57:39.962Z,67.15
2018-09-29T02:02:44.127Z,67.25
2018-09-29T02:07:48.384Z,67.40
2018-09-29T02:12:53.190Z,67.44
2018-09-29T02:17:57.480Z,67.68
2018-09-29T02:23:01.676Z,67.82
2018-09-29T02:28:05.884Z,68.19
2018-09-29T02:33:10.111Z,68.62
2018-09-29T02:38:14.777Z,68.96
2018-09-29T02:43:18.804Z,69.04
2018-09-29T02:48:23.808Z,69.08
2018-09-29T02:53:28.092Z,69.35
2018-09-29T02:58:32.610Z,69.67
2018-09-29T03:03:36.846Z,70.02
2018-09-29T03:08:41.186Z,70.17
2018-09-29T03:13:45.496Z,70.46
2018-09-29T03:18:50.078Z,70.88
2018-09-29T03:23:54.286Z,71.32
2018-09-29T03:28:58.783Z,71.28
2018-09-29T03:34:03.506Z,71.38
2018-09-29T03:39:10.262Z,72.25
2018-09-29T03:44:14.718Z,72.07
2018-09-29T03:49:19.032Z,72.63
2018-09-29T03:54:23.684Z,73.58
2018-09-29T03:59:28.146Z,73.58
2018-09-29T04:04:33.985Z,73.88
2018-09-29T04:09:39.402Z,74.08
2018-09-29T04:14:43.842Z,74.14
2018-09-29T04:19:53.674Z,74.65
2018-09-29T04:24:58.110Z,74.42
2018-09-29T04:30:02.714Z,74.48
2018-09-29T04:35:07.183Z,75.14
2018-09-29T04:40:12.430Z,74.75
2018-09-29T04:45:16.881Z,74.42
2018-09-29T04:50:21.239Z,74.80
2018-09-29T04:55:25.756Z,74.75
2018-09-29T05:00:30.074Z,75.06
2018-09-29T05:05:34.614Z,75.48
2018-09-29T05:10:38.995Z,75.12
2018-09-29T05:15:43.474Z,74.94
2018-09-29T05:20:48.078Z,75.62
2018-09-29T05:25:52.278Z,75.28
2018-09-29T05:30:56.601Z,75.39
2018-09-29T05:36:01.500Z,74.94
2018-09-29T05:41:05.763Z,74.87
2018-09-29T05:46:10.064Z,74.92
2018-09-29T05:51:14.431Z,74.75
2018-09-29T05:56:19.121Z,74.74
2018-09-29T06:01:28.468Z,74.77
2018-09-29T06:06:33.096Z,74.68
2018-09-29T06:11:37.836Z,74.36
2018-09-29T06:16:43.066Z,74.68
2018-09-29T06:21:47.409Z,74.53
2018-09-29T06:26:51.775Z,74.79
2018-09-29T06:31:55.944Z,74.81
2018-09-29T06:37:00.369Z,74.88
2018-09-29T06:42:05.333Z,75.58
2018-09-29T06:47:09.985Z,75.92
2018-09-29T06:52:15.541Z,75.94
2018-09-29T06:57:20.039Z,76.15
2018-09-29T07:02:24.415Z,76.10
2018-09-29T07:07:28.925Z,75.13
2018-09-29T07:12:33.500Z,75.00
2018-09-29T07:17:38.069Z,75.11
2018-09-29T07:22:42.458Z,75.25
2018-09-29T07:27:46.864Z,75.67
2018-09-29T07:32:51.350Z,75.29
2018-09-29T07:37:55.579Z,75.17
2018-09-29T07:42:59.935Z,75.10
2018-09-29T07:48:04.782Z,75.01
2018-09-29T07:53:09.636Z,74.74
2018-09-29T07:58:13.930Z,74.44
2018-09-29T08:03:18.428Z,74.08
2018-09-29T08:08:23.619Z,73.65
2018-09-29T08:13:28.118Z,72.84
2018-09-29T08:18:32.603Z,72.22
2018-09-29T08:23:37.141Z,71.12
2018-09-29T08:28:50.880Z,70.04
2018-09-29T08:34:02.605Z,68.73
2018-09-29T08:39:08.166Z,67.75
2018-09-29T08:44:12.354Z,66.69
2018-09-29T08:49:16.630Z,65.70
2018-09-29T08:54:21.077Z,63.88
2018-09-29T08:59:25.374Z,61.27
2018-09-29T09:04:29.673Z,58.98
2018-09-29T09:09:33.913Z,56.21
2018-09-29T09:14:38.401Z,54.31
2018-09-29T09:19:42.944Z,51.05
2018-09-29T09:24:47.334Z,47.43
2018-09-29T09:29:51.676Z,43.96
2018-09-29T09:34:56.001Z,39.25
2018-09-29T09:40:00.285Z,37.29
2018-09-29T09:45:05.330Z,35.18
2018-09-29T09:50:10.627Z,33.52
2018-09-29T09:55:15.455Z,31.50
2018-09-29T10:00:20.044Z,35.95
2018-09-29T10:05:24.837Z,43.96
2018-09-29T10:10:28.390Z,46.44
2018-09-29T10:15:31.945Z,47.37
2018-09-29T10:20:36.228Z,49.20
2018-09-29T10:25:40.108Z,48.69
2018-09-29T10:30:43.544Z,49.32
2018-09-29T10:35:46.901Z,50.40
2018-09-29T10:40:55.357Z,51.07
2018-09-29T10:45:59.047Z,51.72
2018-09-29T10:51:03.628Z,52.13
2018-09-29T10:56:08.123Z,52.53
2018-09-29T11:01:12.570Z,54.65
2018-09-29T11:06:16.967Z,54.84
2018-09-29T11:11:21.334Z,55.76
2018-09-29T11:16:25.680Z,55.76
2018-09-29T11:21:29.972Z,56.08
2018-09-29T11:26:34.620Z,55.74
2018-09-29T11:31:39.133Z,55.63
2018-09-29T11:36:43.596Z,53.57
2018-09-29T11:41:48.016Z,52.91
2018-09-29T11:46:52.543Z,50.12
2018-09-29T11:51:57.331Z,44.53
2018-09-29T11:57:01.825Z,40.54
2018-09-29T12:02:06.486Z,39.47
2018-09-29T12:07:11.305Z,37.17
2018-09-29T12:12:15.679Z,35.32
2018-09-29T12:17:20.085Z,34.79
2018-09-29T12:22:29.734Z,34.56
2018-09-29T12:27:34.059Z,33.57
2018-09-29T12:32:38.483Z,32.36
2018-09-29T12:37:43.127Z,32.95
2018-09-29T12:42:47.933Z,33.47
2018-09-29T12:47:53.195Z,35.88
2018-09-29T12:52:58.029Z,36.00
2018-09-29T12:58:02.979Z,31.96
2018-09-29T13:03:08.619Z,29.81
2018-09-29T13:08:13.023Z,28.61
2018-09-29T13:13:18.207Z,26.51
2018-09-29T13:18:22.848Z,26.13
2018-09-29T13:23:27.322Z,25.17
2018-09-29T13:28:31.933Z,26.00
2018-09-29T13:33:36.607Z,25.60
2018-09-29T13:38:41.207Z,27.43
2018-09-29T13:43:45.745Z,28.09
2018-09-29T13:48:50.305Z,29.85
2018-09-29T13:53:54.789Z,30.20
2018-09-29T13:58:59.219Z,30.41
2018-09-29T14:04:04.011Z,30.62
2018-09-29T14:09:09.999Z,30.10
2018-09-29T14:14:14.390Z,32.63
2018-09-29T14:19:19.506Z,34.58
2018-09-29T14:24:24.767Z,35.26
2018-09-29T14:29:29.080Z,35.61
2018-09-29T14:34:33.276Z,36.89
2018-09-29T14:39:37.691Z,38.08
2018-09-29T14:44:42.027Z,38.18
2018-09-29T14:49:47.093Z,38.80
2018-09-29T14:54:51.613Z,39.18
2018-09-29T14:59:56.307Z,39.68
2018-09-29T15:05:00.608Z,40.12
2018-09-29T15:10:05.002Z,40.60
2018-09-29T15:15:09.405Z,40.06
2018-09-29T15:20:13.734Z,40.09
2018-09-29T15:25:18.280Z,40.22
2018-09-29T15:30:22.859Z,41.52
2018-09-29T15:35:27.155Z,41.73
2018-09-29T15:40:31.841Z,42.05
2018-09-29T15:45:36.476Z,42.03
2018-09-29T15:50:41.126Z,41.87
2018-09-29T15:55:45.879Z,42.63
2018-09-29T16:00:50.404Z,42.65
2018-09-29T16:05:54.707Z,42.94
2018-09-29T16:10:59.268Z,42.56
2018-09-29T16:16:03.665Z,42.63
2018-09-29T16:21:08.420Z,43.27
2018-09-29T16:26:12.721Z,43.91
2018-09-29T16:31:17.419Z,43.51
2018-09-29T16:36:21.693Z,44.44
2018-09-29T16:41:26.276Z,44.37
2018-09-29T16:46:31.436Z,44.87
2018-09-29T16:51:35.711Z,45.76
2018-09-29T16:56:40.128Z,47.00
2018-09-29T17:01:49.680Z,47.73
2018-09-29T17:06:54.210Z,48.08
2018-09-29T17:11:59.550Z,49.20
2018-09-29T17:17:04.692Z,49.27
2018-09-29T17:22:09.420Z,49.16
2018-09-29T17:27:13.700Z,49.34
2018-09-29T17:32:18.154Z,50.23
2018-09-29T17:37:22.785Z,50.58
2018-09-29T17:42:32.276Z,50.60
2018-09-29T17:47:37.884Z,50.16
2018-09-29T17:52:42.351Z,50.58
2018-09-29T17:57:47.697Z,51.23
2018-09-29T18:02:53.863Z,51.50
2018-09-29T18:07:59.271Z,52.29
2018-09-29T18:13:03.726Z,52.10
2018-09-29T18:18:08.291Z,53.19
2018-09-29T18:23:12.781Z,54.24
2018-09-29T18:28:17.263Z,54.74
2018-09-29T18:33:21.789Z,54.33
2018-09-29T18:38:26.557Z,55.03
2018-09-29T18:43:31.223Z,54.55
2018-09-29T18:48:35.841Z,54.80
2018-09-29T18:53:40.183Z,55.16
2018-09-29T18:58:49.644Z,54.77
2018-09-29T19:03:54.223Z,55.83
2018-09-29T19:08:59.049Z,55.98
2018-09-29T19:14:03.907Z,56.44
2018-09-29T19:19:08.632Z,55.89
2018-09-29T19:24:13.193Z,56.14
2018-09-29T19:29:17.695Z,55.76
2018-09-29T19:34:22.139Z,55.48
2018-09-29T19:39:26.706Z,55.36
2018-09-29T19:44:31.707Z,55.74
2018-09-29T19:49:36.245Z,55.87
2018-09-29T19:54:40.611Z,56.28
2018-09-29T19:59:44.943Z,56.04
2018-09-29T20:04:49.357Z,54.12
2018-09-29T20:09:53.487Z,53.46
2018-09-29T20:14:57.931Z,54.17
2018-09-29T20:20:02.665Z,54.37
2018-09-29T20:25:07.034Z,55.52
2018-09-29T20:30:11.371Z,56.21
2018-09-29T20:35:16.155Z,56.54
2018-09-29T20:40:21.013Z,57.13
2018-09-29T20:45:25.369Z,57.35
2018-09-29T20:50:29.605Z,57.52
2018-09-29T20:55:34.277Z,57.03
2018-09-29T21:00:43.687Z,56.88
2018-09-29T21:05:49.165Z,56.84
2018-09-29T21:10:53.799Z,56.96
2018-09-29T21:15:58.177Z,57.33
2018-09-29T21:21:02.867Z,57.48
2018-09-29T21:26:08.121Z,56.70
2018-09-29T21:31:12.398Z,57.34
2018-09-29T21:36:16.861Z,58.21
2018-09-29T21:41:21.238Z,58.09
2018-09-29T21:46:25.492Z,58.04
2018-09-29T21:51:29.708Z,58.08
2018-09-29T21:56:34.052Z,55.91
2018-09-29T22:01:38.584Z,54.63
2018-09-29T22:06:42.904Z,54.06
2018-09-29T22:11:47.375Z,54.62
2018-09-29T22:16:51.647Z,53.98
2018-09-29T22:21:55.929Z,54.02
2018-09-29T22:27:00.303Z,53.75
2018-09-29T22:32:04.797Z,54.87
2018-09-29T22:37:09.157Z,55.90
2018-09-29T22:42:13.556Z,54.77
2018-09-29T22:47:17.867Z,54.57
2018-09-29T22:52:22.073Z,54.28
2018-09-29T22:57:26.314Z,54.06
2018-09-29T23:02:31.486Z,54.65
2018-09-29T23:07:35.990Z,54.54
2018-09-29T23:12:40.293Z,54.49
2018-09-29T23:17:44.547Z,55.18
2018-09-29T23:22:48.842Z,56.23
2018-09-29T23:27:53.183Z,57.28
2018-09-29T23:32:57.541Z,58.38
2018-09-29T23:38:01.769Z,59.87
2018-09-29T23:43:05.995Z,60.27
2018-09-29T23:48:10.306Z,61.46
2018-09-29T23:53:14.653Z,61.95
2018-09-29T23:58:19.499Z,62.88
